Airfield :
LOGIN :

Register | Disclaimer

   EN    FR    IT 

 










Legend :    VFR   Marginal VFR   IFR   Intensive IFR   Very Intensive IFR
Visi :
Ceiling :
>= 8 km
>= 3000ft
5 to 8 km
1000 to 3000 ft
1500m to 5 km
500 to 1000 ft
800 to 1500m
200 to 500 ft
< 800m
< 200 ft
Symbols :   Thunderstorms  Fog  Heavy snow  Heavy precipitations  Wind > 20 kt
SIGMETs :     Misc.  Thunderstorms  Icing  Turbulence  Mountain Waves  Volcanic Ashes






- Airport Elevation : 468 ft
- IATA code : GRO


LEGE - Girona Costa Brava

CURRENT METAR :
  • 260730Z 34003KT 280V060 9999 FEW040 12/04 Q1014

EXPIRED METARs :
  • 260700Z 28003KT CAVOK 11/05 Q1014
  • 260630Z 25003KT CAVOK 10/04 Q1014
  • 260600Z 23003KT 190V250 CAVOK 09/05 Q1014
  • 260530Z 22004KT CAVOK 09/05 Q1013
  • 260500Z 14001KT CAVOK 10/05 Q1014

TAF TAF LEGE
Valid from the 26 at 06:00 until the 27 at 06:00 UTC


260500Z 2606/2706 VRB03KT 9999 FEW020 TX21/2613Z TN10/2606Z
BECMG 2612/2614 18010KT
BECMG 2618/2620 VRB03KT
TEMPO 2618/2624 04010KT 4000 RA BKN010



MET'MAP, your aeronautical weather chart ! - Copyright ORBIFLY December 2007 - Disclaimer

ORBIFLY MET'MAP TEAM :

Programming & Development : Alexandra Zaïnal
Concept & original design : Baudouin d'Aumeries
Assistance for programming : Marc-Olivier Méhu
Technical & hardware support : Manuel Goepfert

Contact : metmap@orbifly.com




SOURCES & CREDITS :

   NOAA